createdAt,value
2024-05-09T00:00:29.655Z,2.60
2024-05-09T00:01:20.728Z,2.59
2024-05-09T00:02:19.971Z,2.54
2024-05-09T00:03:20.338Z,2.54
2024-05-09T00:04:20.647Z,2.73
2024-05-09T00:05:21.048Z,2.69
2024-05-09T00:06:21.145Z,2.54
2024-05-09T00:07:21.387Z,2.66
2024-05-09T00:08:21.711Z,2.66
2024-05-09T00:09:21.958Z,2.62
2024-05-09T00:10:29.094Z,2.62
2024-05-09T00:11:23.605Z,2.62
2024-05-09T00:12:22.830Z,2.62
2024-05-09T00:13:23.039Z,2.60
2024-05-09T00:14:23.352Z,2.58
2024-05-09T00:15:23.566Z,2.58
2024-05-09T00:16:23.833Z,2.58
2024-05-09T00:17:24.240Z,2.54
2024-05-09T00:18:24.609Z,2.56
2024-05-09T00:19:24.863Z,2.56
2024-05-09T00:20:33.070Z,2.54
2024-05-09T00:21:26.219Z,2.54
2024-05-09T00:22:25.511Z,2.55
2024-05-09T00:23:25.820Z,2.74
2024-05-09T00:24:26.030Z,2.71
2024-05-09T00:25:26.294Z,2.70
2024-05-09T00:26:26.607Z,2.70
2024-05-09T00:27:26.857Z,2.70
2024-05-09T00:28:27.116Z,2.63
2024-05-09T00:29:27.569Z,2.58
2024-05-09T00:30:33.785Z,2.56
2024-05-09T00:31:28.936Z,2.54
2024-05-09T00:32:28.329Z,2.60
2024-05-09T00:33:28.845Z,2.55
2024-05-09T00:34:29.064Z,2.57
2024-05-09T00:35:29.194Z,2.54
2024-05-09T00:36:29.423Z,2.56
2024-05-09T00:37:29.673Z,2.54
2024-05-09T00:38:30.112Z,2.54
2024-05-09T00:39:30.227Z,2.55
2024-05-09T00:40:38.032Z,2.54
2024-05-09T00:41:31.856Z,2.54
2024-05-09T00:42:30.970Z,1.67
2024-05-09T00:43:31.212Z,1.65
2024-05-09T00:44:31.523Z,1.67
2024-05-09T00:45:31.795Z,1.59
2024-05-09T00:46:32.044Z,1.64
2024-05-09T00:48:34.109Z,1.57
2024-05-09T00:49:34.432Z,1.47
2024-05-09T00:50:36.886Z,1.41
2024-05-09T00:51:34.822Z,1.41
2024-05-09T00:52:35.067Z,1.30
2024-05-09T00:53:35.446Z,1.27
2024-05-09T00:54:35.631Z,1.25
2024-05-09T00:55:35.883Z,1.27
2024-05-09T00:56:36.192Z,1.26
2024-05-09T00:57:36.441Z,1.26
2024-05-09T00:58:36.689Z,1.25
2024-05-09T00:59:36.970Z,1.25
2024-05-09T01:00:40.046Z,1.27
2024-05-09T01:01:37.583Z,1.27
2024-05-09T01:02:37.733Z,1.26
2024-05-09T01:03:38.373Z,1.30
2024-05-09T01:04:38.252Z,1.29
2024-05-09T01:05:38.498Z,1.25
2024-05-09T01:06:38.764Z,1.43
2024-05-09T01:07:39.024Z,1.42
2024-05-09T01:08:39.450Z,1.42
2024-05-09T01:09:39.557Z,1.42
2024-05-09T01:10:42.859Z,1.39
2024-05-09T01:11:41.185Z,1.37
2024-05-09T01:12:40.362Z,1.35
2024-05-09T01:13:40.582Z,1.37
2024-05-09T01:14:40.839Z,1.33
2024-05-09T01:15:41.103Z,1.29
2024-05-09T01:16:41.341Z,1.33
2024-05-09T01:17:41.807Z,1.33
2024-05-09T01:18:41.900Z,1.29
2024-05-09T01:19:42.228Z,1.27
2024-05-09T01:20:44.729Z,1.25
2024-05-09T01:21:42.804Z,1.27
2024-05-09T01:22:43.135Z,1.25
2024-05-09T01:23:43.375Z,1.27
2024-05-09T01:24:43.592Z,1.25
2024-05-09T01:25:44.044Z,1.25
2024-05-09T01:26:44.096Z,1.29
2024-05-09T01:27:44.345Z,1.25
2024-05-09T01:28:44.610Z,1.25
2024-05-09T01:29:44.832Z,1.25
2024-05-09T01:30:45.085Z,1.25
2024-05-09T01:31:45.429Z,1.98
2024-05-09T01:32:45.722Z,1.98
2024-05-09T01:33:46.256Z,1.98
2024-05-09T01:34:46.355Z,1.93
2024-05-09T01:35:46.563Z,1.90
2024-05-09T01:36:46.834Z,1.91
2024-05-09T01:37:47.111Z,1.90
2024-05-09T01:38:47.338Z,1.89
2024-05-09T01:39:47.614Z,1.89
2024-05-09T01:40:47.900Z,1.89
2024-05-09T01:41:48.131Z,1.90
2024-05-09T01:42:48.378Z,1.89
2024-05-09T01:43:48.702Z,1.89
2024-05-09T01:44:48.931Z,1.75
2024-05-09T01:45:49.192Z,1.75
2024-05-09T01:46:49.489Z,1.73
2024-05-09T01:47:49.876Z,1.73
2024-05-09T01:48:50.073Z,1.69
2024-05-09T01:49:50.340Z,1.69
2024-05-09T01:50:50.577Z,1.65
2024-05-09T01:51:50.804Z,1.67
2024-05-09T01:52:51.147Z,1.66
2024-05-09T01:53:51.366Z,1.58
2024-05-09T01:54:51.637Z,1.57
2024-05-09T01:55:51.943Z,1.57
2024-05-09T01:56:52.206Z,1.57
2024-05-09T01:57:52.447Z,1.58
2024-05-09T01:58:52.705Z,1.63
2024-05-09T01:59:52.935Z,1.63
2024-05-09T02:00:53.208Z,1.57
2024-05-09T02:01:56.956Z,1.57
2024-05-09T02:02:54.051Z,1.57
2024-05-09T02:03:54.223Z,1.58
2024-05-09T02:04:54.374Z,1.32
2024-05-09T02:05:54.627Z,1.29
2024-05-09T02:06:54.874Z,1.29
2024-05-09T02:07:55.137Z,1.29
2024-05-09T02:08:55.359Z,1.25
2024-05-09T02:09:55.611Z,1.28
2024-05-09T02:10:55.946Z,1.26
2024-05-09T02:11:56.333Z,1.25
2024-05-09T02:12:56.444Z,1.49
2024-05-09T02:13:56.770Z,1.48
2024-05-09T02:14:57.012Z,1.43
2024-05-09T02:15:57.249Z,1.42
2024-05-09T02:16:57.556Z,1.42
2024-05-09T02:17:57.903Z,1.41
2024-05-09T02:18:58.122Z,1.41
2024-05-09T02:19:58.365Z,1.41
2024-05-09T02:20:58.675Z,1.42
2024-05-09T02:21:58.911Z,1.41
2024-05-09T02:22:59.187Z,1.41
2024-05-09T02:23:59.399Z,1.41
2024-05-09T02:24:59.656Z,1.25
2024-05-09T02:26:00.015Z,1.25
2024-05-09T02:27:00.269Z,1.25
2024-05-09T02:28:00.630Z,1.35
2024-05-09T02:29:00.804Z,1.35
2024-05-09T02:30:01.006Z,1.33
2024-05-09T02:31:01.263Z,1.31
2024-05-09T02:32:01.626Z,1.29
2024-05-09T02:33:02.032Z,1.29
2024-05-09T02:34:02.374Z,1.27
2024-05-09T02:35:02.455Z,1.26
2024-05-09T02:36:02.671Z,1.28
2024-05-09T02:37:02.961Z,1.27
2024-05-09T02:38:03.341Z,1.27
2024-05-09T02:39:03.457Z,1.35
2024-05-09T02:40:05.560Z,1.25
2024-05-09T02:41:04.045Z,1.35
2024-05-09T02:42:04.285Z,1.35
2024-05-09T02:43:04.533Z,1.28
2024-05-09T02:44:04.814Z,1.27
2024-05-09T02:45:05.042Z,1.27
2024-05-09T02:46:05.320Z,1.25
2024-05-09T02:47:05.637Z,1.81
2024-05-09T02:48:06.080Z,1.73
2024-05-09T02:49:06.326Z,1.75
2024-05-09T02:50:08.127Z,1.73
2024-05-09T02:51:06.922Z,1.73
2024-05-09T02:52:07.074Z,1.73
2024-05-09T02:53:07.603Z,1.75
2024-05-09T02:54:07.561Z,1.74
2024-05-09T02:55:07.804Z,1.73
2024-05-09T02:56:08.132Z,1.73
2024-05-09T02:57:08.346Z,1.57
2024-05-09T02:58:08.644Z,1.73
2024-05-09T02:59:08.995Z,1.70
2024-05-09T03:00:15.205Z,1.65
2024-05-09T03:01:10.458Z,1.69
2024-05-09T03:02:09.840Z,1.65
2024-05-09T03:03:12.475Z,1.65
2024-05-09T03:04:10.556Z,1.65
2024-05-09T03:05:10.682Z,1.57
2024-05-09T03:06:10.910Z,1.61
2024-05-09T03:07:11.199Z,1.61
2024-05-09T03:08:11.569Z,1.57
2024-05-09T03:09:11.777Z,1.61
2024-05-09T03:10:18.433Z,1.59
2024-05-09T03:11:13.281Z,1.57
2024-05-09T03:12:12.727Z,1.57
2024-05-09T03:13:14.552Z,1.57
2024-05-09T03:14:13.175Z,1.34
2024-05-09T03:15:13.424Z,1.34
2024-05-09T03:16:13.658Z,1.34
2024-05-09T03:17:14.014Z,1.33
2024-05-09T03:18:14.486Z,1.34
2024-05-09T03:19:14.751Z,1.35
2024-05-09T03:20:20.675Z,1.34
2024-05-09T03:21:16.120Z,1.27
2024-05-09T03:22:15.412Z,1.27
2024-05-09T03:23:15.702Z,1.25
2024-05-09T03:24:15.931Z,1.25
2024-05-09T03:25:16.181Z,1.49
2024-05-09T03:26:16.541Z,1.45
2024-05-09T03:27:16.781Z,1.45
2024-05-09T03:28:17.035Z,1.41
2024-05-09T03:29:17.427Z,1.44
2024-05-09T03:30:29.233Z,1.44
2024-05-09T03:31:18.847Z,1.41
2024-05-09T03:32:18.247Z,1.28
2024-05-09T03:33:20.147Z,1.25
2024-05-09T03:34:18.637Z,1.34
2024-05-09T03:35:18.938Z,1.33
2024-05-09T03:36:19.192Z,1.26
2024-05-09T03:37:19.488Z,1.29
2024-05-09T03:38:19.777Z,1.27
2024-05-09T03:39:20.068Z,1.29
2024-05-09T03:40:23.835Z,1.30
2024-05-09T03:41:21.632Z,1.26
2024-05-09T03:42:20.909Z,1.25
2024-05-09T03:43:21.240Z,1.25
2024-05-09T03:44:21.480Z,1.25
2024-05-09T03:45:21.730Z,1.25
2024-05-09T03:46:21.977Z,1.26
2024-05-09T03:47:22.517Z,1.25
2024-05-09T03:48:22.647Z,1.25
2024-05-09T03:49:22.939Z,1.25
2024-05-09T03:50:30.042Z,1.25
2024-05-09T03:51:24.270Z,1.26
2024-05-09T03:52:23.596Z,1.26
2024-05-09T03:53:23.932Z,1.26
2024-05-09T03:54:24.184Z,1.27
2024-05-09T03:55:24.460Z,1.28
2024-05-09T03:56:24.801Z,1.26
2024-05-09T03:57:25.079Z,1.27
2024-05-09T03:58:25.360Z,1.25
2024-05-09T03:59:25.728Z,1.26
2024-05-09T04:00:34.416Z,1.27
2024-05-09T04:01:27.199Z,1.25
2024-05-09T04:02:26.615Z,1.25
2024-05-09T04:03:27.058Z,1.25
2024-05-09T04:04:27.074Z,1.25
2024-05-09T04:05:27.381Z,1.26
2024-05-09T04:06:27.575Z,1.27
2024-05-09T04:07:27.854Z,1.29
2024-05-09T04:08:28.182Z,1.25
2024-05-09T04:09:28.398Z,1.25
2024-05-09T04:10:33.309Z,1.27
2024-05-09T04:11:30.010Z,1.25
2024-05-09T04:12:29.267Z,1.27
2024-05-09T04:13:29.528Z,1.35
2024-05-09T04:14:29.945Z,1.41
2024-05-09T04:15:30.111Z,1.41
2024-05-09T04:16:30.390Z,1.26
2024-05-09T04:17:30.978Z,1.25
2024-05-09T04:18:31.033Z,1.29
2024-05-09T04:19:31.331Z,1.32
2024-05-09T04:20:38.192Z,1.33
2024-05-09T04:21:32.682Z,1.33
2024-05-09T04:22:32.003Z,1.40
2024-05-09T04:23:32.326Z,1.59
2024-05-09T04:24:32.570Z,1.61
2024-05-09T04:25:32.897Z,1.59
2024-05-09T04:26:33.170Z,1.65
2024-05-09T04:27:33.467Z,1.89
2024-05-09T04:28:33.749Z,1.89
2024-05-09T04:29:34.072Z,1.89
2024-05-09T04:30:38.794Z,1.99
2024-05-09T04:31:35.659Z,2.10
2024-05-09T04:32:35.105Z,1.29
2024-05-09T04:33:35.376Z,1.33
2024-05-09T04:34:35.604Z,1.26
2024-05-09T04:35:35.800Z,1.28
2024-05-09T04:36:35.950Z,1.33
2024-05-09T04:37:36.267Z,1.45
2024-05-09T04:38:36.699Z,1.57
2024-05-09T04:39:36.791Z,1.25
2024-05-09T04:40:37.832Z,1.26
2024-05-09T04:41:37.389Z,1.39
2024-05-09T04:42:37.677Z,1.42
2024-05-09T04:43:37.961Z,1.51
2024-05-09T04:44:38.322Z,1.25
2024-05-09T04:45:38.582Z,1.30
2024-05-09T04:46:38.881Z,1.33
2024-05-09T04:47:39.337Z,1.29
2024-05-09T04:48:39.618Z,1.43
2024-05-09T04:49:39.786Z,1.89
2024-05-09T04:50:40.400Z,1.90
2024-05-09T04:51:40.426Z,1.90
2024-05-09T04:52:40.736Z,1.98
2024-05-09T04:53:41.217Z,2.06
2024-05-09T04:54:41.323Z,2.22
2024-05-09T04:55:41.592Z,2.62
2024-05-09T04:56:41.977Z,3.89
2024-05-09T04:57:42.146Z,4.33
2024-05-09T04:58:42.447Z,4.47
2024-05-09T04:59:42.738Z,4.47
2024-05-09T05:00:43.168Z,4.50
2024-05-09T05:01:43.328Z,4.45
2024-05-09T05:02:43.797Z,5.12
2024-05-09T05:03:44.110Z,5.28
2024-05-09T05:04:44.349Z,5.45
2024-05-09T05:05:45.609Z,5.64
2024-05-09T05:06:44.698Z,5.86
2024-05-09T05:07:45.034Z,11.57
2024-05-09T05:08:45.392Z,11.86
2024-05-09T05:09:45.664Z,11.76
2024-05-09T05:10:46.775Z,11.93
2024-05-09T05:11:46.336Z,11.75
2024-05-09T05:12:46.515Z,11.88
2024-05-09T05:13:46.841Z,12.09
2024-05-09T05:14:47.127Z,11.58
2024-05-09T05:15:47.504Z,11.97
2024-05-09T05:16:47.723Z,12.85
2024-05-09T05:17:48.206Z,13.25
2024-05-09T05:18:48.316Z,11.56
2024-05-09T05:19:48.754Z,11.56
2024-05-09T05:20:48.864Z,11.64
2024-05-09T05:21:49.076Z,11.65
2024-05-09T05:22:49.408Z,12.37
2024-05-09T05:23:49.755Z,12.53
2024-05-09T05:24:49.913Z,14.14
2024-05-09T05:25:50.323Z,14.30
2024-05-09T05:26:50.465Z,14.44
2024-05-09T05:27:50.803Z,15.54
2024-05-09T05:28:51.200Z,1.25
2024-05-09T05:29:51.337Z,1.33
2024-05-09T05:30:51.656Z,1.89
2024-05-09T05:31:52.035Z,2.22
2024-05-09T05:32:52.362Z,2.58
2024-05-09T05:33:52.509Z,1.35
2024-05-09T05:34:52.788Z,1.26
2024-05-09T05:35:53.085Z,3.18
2024-05-09T05:36:53.357Z,3.35
2024-05-09T05:37:53.714Z,3.52
2024-05-09T05:38:54.082Z,1.25
2024-05-09T05:39:54.201Z,1.25
2024-05-09T05:40:54.561Z,1.36
2024-05-09T05:41:54.742Z,1.36
2024-05-09T05:42:55.078Z,4.80
2024-05-09T05:43:55.440Z,1.27
2024-05-09T05:44:55.585Z,1.27
2024-05-09T05:45:55.880Z,1.26
2024-05-09T05:46:56.198Z,1.59
2024-05-09T05:47:56.855Z,1.61
2024-05-09T05:48:56.907Z,1.34
2024-05-09T05:49:57.072Z,1.89
2024-05-09T05:50:57.883Z,1.81
2024-05-09T05:51:57.618Z,6.42
2024-05-09T05:52:57.993Z,6.43
2024-05-09T05:53:58.262Z,6.47
2024-05-09T05:54:58.581Z,6.63
2024-05-09T05:55:58.983Z,7.09
2024-05-09T05:56:59.141Z,6.47
2024-05-09T05:57:59.468Z,6.74
2024-05-09T05:58:59.795Z,6.57
2024-05-09T06:00:00.089Z,6.41
2024-05-09T06:01:00.505Z,6.77
2024-05-09T06:02:00.731Z,6.81
2024-05-09T06:03:01.080Z,6.89
2024-05-09T06:04:01.397Z,7.78
2024-05-09T06:05:01.643Z,7.09
2024-05-09T06:06:01.911Z,7.15
2024-05-09T06:07:02.064Z,7.86
2024-05-09T06:08:02.427Z,8.66
2024-05-09T06:09:02.698Z,6.89
2024-05-09T06:10:05.352Z,8.98
2024-05-09T06:11:03.404Z,9.15
2024-05-09T06:12:03.845Z,9.08
2024-05-09T06:13:03.915Z,9.08
2024-05-09T06:14:04.291Z,6.46
2024-05-09T06:15:04.543Z,8.63
2024-05-09T06:16:04.865Z,8.42
2024-05-09T06:17:05.174Z,8.38
2024-05-09T06:18:05.890Z,8.52
2024-05-09T06:19:05.940Z,8.99
2024-05-09T06:20:11.149Z,8.98
2024-05-09T06:21:07.360Z,9.03
2024-05-09T06:22:06.652Z,9.31
2024-05-09T06:23:07.234Z,9.31
2024-05-09T06:24:07.237Z,9.19
2024-05-09T06:25:07.563Z,9.17
2024-05-09T06:26:07.941Z,9.16
2024-05-09T06:27:08.197Z,9.19
2024-05-09T06:28:08.538Z,9.00
2024-05-09T06:29:08.881Z,9.15
2024-05-09T06:30:14.426Z,8.98
2024-05-09T06:31:10.417Z,9.02
2024-05-09T06:32:09.830Z,7.98
2024-05-09T06:33:11.800Z,9.03
2024-05-09T06:34:10.368Z,9.15
2024-05-09T06:35:10.648Z,22.20
2024-05-09T06:36:10.814Z,22.28
2024-05-09T06:37:11.114Z,22.60
2024-05-09T06:38:12.190Z,22.53
2024-05-09T06:39:11.701Z,23.01
2024-05-09T06:41:12.386Z,23.22
2024-05-09T06:42:12.556Z,23.17
2024-05-09T06:43:13.080Z,23.28
2024-05-09T06:44:13.254Z,23.49
2024-05-09T06:45:13.446Z,22.52
2024-05-09T06:46:13.776Z,22.60
2024-05-09T06:47:14.298Z,22.69
2024-05-09T06:48:14.623Z,23.65
2024-05-09T06:49:14.897Z,21.99
2024-05-09T06:50:24.413Z,22.10
2024-05-09T06:51:16.159Z,22.28
2024-05-09T06:52:15.457Z,22.40
2024-05-09T06:53:15.920Z,22.68
2024-05-09T06:54:16.092Z,22.88
2024-05-09T06:55:16.421Z,22.06
2024-05-09T06:56:16.774Z,21.89
2024-05-09T06:57:17.041Z,21.88
2024-05-09T06:58:17.389Z,22.53
2024-05-09T06:59:17.753Z,23.20
2024-05-09T07:00:26.839Z,23.25
2024-05-09T07:01:19.273Z,23.68
2024-05-09T07:02:26.103Z,21.90
2024-05-09T07:03:19.677Z,21.92
2024-05-09T07:04:19.127Z,22.61
2024-05-09T07:05:19.355Z,22.14
2024-05-09T07:06:19.547Z,22.21
2024-05-09T07:07:19.879Z,21.90
2024-05-09T07:08:20.392Z,26.72
2024-05-09T07:09:20.548Z,27.05
2024-05-09T07:10:28.654Z,27.03
2024-05-09T07:11:22.212Z,27.16
2024-05-09T07:12:21.463Z,27.39
2024-05-09T07:13:21.696Z,27.03
2024-05-09T07:14:21.961Z,27.17
2024-05-09T07:15:22.147Z,23.16
2024-05-09T07:16:22.473Z,23.65
2024-05-09T07:17:22.948Z,23.24
2024-05-09T07:18:23.423Z,27.03
2024-05-09T07:19:23.785Z,28.48
2024-05-09T07:20:32.164Z,27.07
2024-05-09T07:21:25.092Z,27.40
2024-05-09T07:22:24.282Z,27.76
2024-05-09T07:23:24.616Z,27.27
2024-05-09T07:24:24.751Z,25.42
2024-05-09T07:25:25.155Z,25.46
2024-05-09T07:26:25.484Z,27.35
2024-05-09T07:27:25.612Z,27.03
2024-05-09T07:28:25.972Z,28.18
2024-05-09T07:29:26.282Z,29.61
2024-05-09T07:30:33.134Z,31.05
2024-05-09T07:31:27.831Z,29.81
2024-05-09T07:32:27.302Z,29.85
2024-05-09T07:33:27.554Z,29.61
2024-05-09T07:34:27.899Z,30.04
2024-05-09T07:35:28.067Z,30.13
2024-05-09T07:36:28.174Z,28.90
2024-05-09T07:37:28.529Z,28.29
2024-05-09T07:38:28.919Z,28.91
2024-05-09T07:39:29.079Z,29.69
2024-05-09T07:40:35.770Z,28.73
